Time;durP1;ratioP1;P1;durP2;ratioP2;P2;SDS_P1;SDS_P2;PMS_P1;PMS_P2;Temp;Humidity;BMP_temperature;BMP_pressure;BME280_temperature;BME280_humidity;BME280_pressure;Samples;Min_cycle;Max_cycle;Signal;HPM_P1;HPM_P2
2023/10/19 00:00:19;;;;;;;41.03;9.60;;;;;;;12.27;79.94;100947.88;5110978;28;20024;-83
2023/10/19 00:02:54;;;;;;;20.60;9.75;;;;;;;12.16;79.93;100935.28;5111000;28;20068;-83
2023/10/19 00:05:20;;;;;;;30.70;13.07;;;;;;;12.35;79.69;100953.50;5110727;28;20034;-83
2023/10/19 00:07:46;;;;;;;17.92;12.32;;;;;;;12.18;79.97;100924.38;5110778;28;20056;-84
2023/10/19 00:10:15;;;;;;;12.88;7.68;;;;;;;12.44;79.78;100952.72;5110732;28;20024;-84
2023/10/19 00:12:43;;;;;;;13.77;5.30;;;;;;;12.42;79.65;100952.84;5108653;28;20641;-82
2023/10/19 00:15:11;;;;;;;9.80;5.07;;;;;;;12.16;79.56;100907.47;5111197;28;20047;-82
2023/10/19 00:17:38;;;;;;;14.63;7.15;;;;;;;12.40;79.01;100944.03;5111256;28;20031;-84
2023/10/19 00:22:52;;;;;;;14.75;8.27;;;;;;;12.13;79.08;100907.72;5020902;28;20029;-83
2023/10/19 00:25:18;;;;;;;31.95;12.43;;;;;;;12.14;79.09;100906.75;5047793;28;20481;-83
2023/10/19 00:27:45;;;;;;;36.00;13.95;;;;;;;12.34;79.41;100957.16;5048205;28;20063;-83
2023/10/19 00:30:11;;;;;;;33.20;17.73;;;;;;;12.30;79.59;100939.53;5047362;28;20063;-83
2023/10/19 00:32:38;;;;;;;32.25;16.30;;;;;;;12.16;79.80;100913.72;5047550;28;20087;-83
2023/10/19 00:35:21;;;;;;;41.50;19.02;;;;;;;11.83;79.61;100871.53;5047385;28;20055;-84
2023/10/19 00:37:48;;;;;;;7.93;4.28;;;;;;;12.26;80.12;100951.56;5047432;28;20497;-83
2023/10/19 00:40:32;;;;;;;12.32;6.95;;;;;;;12.19;80.36;100928.78;5046714;28;20048;-83
2023/10/19 00:43:02;;;;;;;8.93;3.55;;;;;;;12.28;80.23;100941.50;5047316;28;20630;-83
2023/10/19 00:45:28;;;;;;;5.57;3.63;;;;;;;12.04;80.21;100890.47;5014852;28;20123;-83
2023/10/19 00:47:54;;;;;;;12.30;3.70;;;;;;;12.33;79.51;100928.47;5048278;28;20187;-83
2023/10/19 00:50:22;;;;;;;7.60;3.45;;;;;;;12.33;79.34;100923.09;5047616;28;20068;-83
2023/10/19 00:52:51;;;;;;;9.00;3.40;;;;;;;12.30;78.81;100920.66;5048078;28;20056;-81
2023/10/19 00:55:25;;;;;;;6.47;3.10;;;;;;;12.39;79.17;100938.75;5047686;28;20516;-83
2023/10/19 00:57:52;;;;;;;31.42;5.07;;;;;;;12.08;79.57;100885.69;5047998;28;20144;-83
2023/10/19 01:00:31;;;;;;;8.68;4.05;;;;;;;12.02;79.33;100887.03;5088125;28;20085;-83
2023/10/19 01:03:00;;;;;;;14.65;4.45;;;;;;;11.91;79.35;100879.88;5110913;28;20031;-83
2023/10/19 01:05:37;;;;;;;24.83;5.22;;;;;;;12.17;79.65;100922.69;5110665;28;20031;-83
2023/10/19 01:08:19;;;;;;;15.88;3.80;;;;;;;12.28;79.13;100934.28;5110737;28;20024;-83
2023/10/19 01:10:51;;;;;;;20.48;3.83;;;;;;;12.24;79.40;100929.25;5110554;28;20040;-83
2023/10/19 01:13:18;;;;;;;13.95;3.58;;;;;;;12.20;79.43;100917.03;5110692;28;20023;-83
2023/10/19 01:15:43;;;;;;;10.23;3.83;;;;;;;12.15;79.39;100920.09;5109798;28;20048;-83
2023/10/19 01:18:13;;;;;;;13.73;4.70;;;;;;;12.32;79.67;100938.41;5109854;28;20407;-83
2023/10/19 01:20:50;;;;;;;16.50;3.92;;;;;;;12.13;79.07;100905.03;5109719;28;20085;-83
2023/10/19 01:31:07;;;;;;;11.75;4.28;;;;;;;12.20;79.58;100917.03;5109790;28;20093;-82
2023/10/19 01:33:34;;;;;;;15.32;5.78;;;;;;;12.21;79.23;100913.31;5109579;28;20024;-83
2023/10/19 01:36:14;;;;;;;8.90;5.03;;;;;;;12.10;78.81;100894.50;5109846;28;20088;-83
2023/10/19 01:38:41;;;;;;;11.50;5.97;;;;;;;12.06;78.93;100893.03;5109922;28;20098;-83
2023/10/19 01:44:04;;;;;;;14.85;5.03;;;;;;;12.04;79.51;100906.66;5066733;28;20155;-83
2023/10/19 01:46:36;;;;;;;14.93;4.70;;;;;;;12.02;79.43;100909.47;5067048;28;20516;-83
2023/10/19 01:49:03;;;;;;;12.50;4.43;;;;;;;11.96;79.56;100892.94;5067041;28;20036;-83
2023/10/19 01:51:32;;;;;;;14.68;4.20;;;;;;;11.95;79.75;100897.50;5067356;28;20396;-83
2023/10/19 01:54:00;;;;;;;10.18;4.07;;;;;;;11.82;80.09;100874.38;5053848;28;20094;-82
2023/10/19 01:56:26;;;;;;;10.18;3.75;;;;;;;11.91;80.31;100879.00;5070829;28;20052;-83
2023/10/19 01:58:54;;;;;;;11.63;4.15;;;;;;;11.80;79.67;100870.97;5071337;28;20050;-83
2023/10/19 02:01:20;;;;;;;7.13;3.47;;;;;;;12.14;79.79;100922.94;5069794;28;20064;-82
2023/10/19 02:03:52;;;;;;;8.30;3.55;;;;;;;12.12;79.68;100914.09;5069917;28;20104;-82
2023/10/19 02:06:19;;;;;;;;;;;;;;;12.02;79.70;100929.34;5070384;28;20229;-82
2023/10/19 02:08:56;;;;;;;33.30;7.18;;;;;;;12.00;79.81;100921.38;5069748;28;20379;-84
2023/10/19 02:11:22;;;;;;;14.93;7.93;;;;;;;11.81;79.55;100900.47;5069582;28;20063;-85
2023/10/19 02:13:55;;;;;;;33.30;7.85;;;;;;;11.87;79.97;100912.56;5069678;28;20037;-82
2023/10/19 02:16:22;;;;;;;28.65;8.23;;;;;;;11.86;80.06;100909.00;5069545;28;20040;-83
2023/10/19 02:18:51;;;;;;;11.10;7.10;;;;;;;11.90;80.37;100917.72;5069519;28;20095;-82
2023/10/19 02:21:30;;;;;;;24.27;7.13;;;;;;;11.50;79.83;100855.41;5092691;28;20031;-84
2023/10/19 02:23:57;;;;;;;18.50;6.45;;;;;;;11.69;80.34;100896.03;5112682;28;20027;-83
2023/10/19 02:26:26;;;;;;;22.00;7.35;;;;;;;11.84;80.69;100910.97;5113339;28;20110;-83
2023/10/19 02:28:52;;;;;;;21.38;7.63;;;;;;;11.81;80.18;100911.25;5094677;28;20392;-84
2023/10/19 02:31:20;;;;;;;15.30;7.13;;;;;;;11.78;80.55;100906.09;5112454;28;20023;-82
2023/10/19 02:33:46;;;;;;;14.80;4.82;;;;;;;11.62;80.83;100888.59;5112606;28;20118;-83
2023/10/19 02:36:16;;;;;;;17.45;5.97;;;;;;;11.69;81.11;100890.66;5112551;28;20447;-83
2023/10/19 02:38:48;;;;;;;13.63;4.15;;;;;;;11.47;81.41;100858.34;5112372;28;20023;-84
2023/10/19 02:41:15;;;;;;;;;;;;;;;11.86;81.47;100916.25;5112758;28;20547;-84
2023/10/19 02:43:41;;;;;;;21.75;5.03;;;;;;;11.65;81.89;100894.56;5112312;28;19907;-82
2023/10/19 02:46:07;;;;;;;19.13;5.57;;;;;;;11.77;82.31;100912.47;5112108;27;20442;-83
2023/10/19 02:48:32;;;;;;;10.45;3.53;;;;;;;11.81;82.32;100915.75;5111989;28;20031;-83
2023/10/19 02:51:06;;;;;;;15.10;4.97;;;;;;;11.82;82.26;100912.97;5111987;28;20081;-83
2023/10/19 02:53:32;;;;;;;10.88;4.85;;;;;;;11.81;81.88;100895.06;5111717;28;20491;-83
2023/10/19 02:56:01;;;;;;;27.95;5.43;;;;;;;11.88;82.29;100917.84;5112128;28;20035;-82
2023/10/19 02:58:28;;;;;;;22.40;3.92;;;;;;;11.92;82.79;100903.16;5111672;28;20024;-83
2023/10/19 03:00:54;;;;;;;13.73;3.75;;;;;;;11.80;82.22;100882.56;5112015;28;20041;-84
2023/10/19 03:03:20;;;;;;;8.63;3.60;;;;;;;11.76;82.67;100878.44;5110408;28;20027;-83
2023/10/19 03:05:46;;;;;;;27.75;4.63;;;;;;;11.94;82.55;100911.94;5112518;28;20032;-82
2023/10/19 03:08:15;;;;;;;11.50;4.35;;;;;;;11.81;81.89;100878.91;5112119;28;20079;-84
2023/10/19 03:10:44;;;;;;;10.63;3.28;;;;;;;11.96;82.18;100909.97;5112165;28;20035;-84
2023/10/19 03:13:09;;;;;;;11.23;3.42;;;;;;;11.92;82.13;100903.16;5112233;27;20475;-82
2023/10/19 03:15:35;;;;;;;5.95;3.85;;;;;;;11.63;82.28;100850.75;5111451;28;20044;-83
2023/10/19 03:18:02;;;;;;;12.15;4.28;;;;;;;11.82;82.33;100869.84;5111522;28;20148;-83
2023/10/19 03:20:33;;;;;;;40.40;6.05;;;;;;;11.93;82.57;100875.19;5106181;28;20055;-82
2023/10/19 03:23:01;;;;;;;12.90;5.28;;;;;;;12.10;82.74;100902.59;5111331;28;20084;-82
2023/10/19 03:28:12;;;;;;;26.08;5.65;;;;;;;11.92;82.17;100860.03;5111495;28;20163;-84
2023/10/19 03:30:40;;;;;;;40.75;5.38;;;;;;;11.92;82.05;100862.72;5111492;28;20031;-82
2023/10/19 03:33:10;;;;;;;15.68;4.38;;;;;;;12.10;82.71;100889.09;5111255;28;20119;-84
2023/10/19 03:35:38;;;;;;;21.42;4.40;;;;;;;12.07;82.03;100889.38;5111054;28;20055;-82
2023/10/19 03:38:18;;;;;;;37.05;4.90;;;;;;;12.09;82.16;100882.84;5111127;28;20024;-82
2023/10/19 03:40:51;;;;;;;41.17;5.28;;;;;;;11.94;82.28;100868.81;5111259;28;20066;-83
2023/10/19 03:43:18;;;;;;;26.50;4.35;;;;;;;11.95;82.17;100875.94;5110970;28;20407;-83
2023/10/19 03:45:54;;;;;;;28.58;5.28;;;;;;;11.95;82.29;100862.47;5111259;28;20088;-84
2023/10/19 03:48:26;;;;;;;41.63;5.78;;;;;;;11.94;82.66;100852.66;5111153;28;20055;-83
2023/10/19 03:50:53;;;;;;;16.88;4.75;;;;;;;11.99;82.03;100861.19;5111153;28;20477;-83
2023/10/19 03:53:21;;;;;;;35.53;7.72;;;;;;;12.02;81.85;100870.88;5111682;28;20027;-83
2023/10/19 03:55:47;;;;;;;63.47;8.98;;;;;;;11.95;81.84;100865.16;5111255;28;20055;-84
2023/10/19 03:58:12;;;;;;;153.63;16.88;;;;;;;11.91;81.92;100863.69;5110916;28;20019;-83
2023/10/19 04:00:38;;;;;;;37.35;7.72;;;;;;;11.96;82.16;100874.94;5111384;28;20494;-84
2023/10/19 04:03:04;;;;;;;75.47;8.68;;;;;;;11.97;82.00;100873.97;5110713;27;20070;-83
2023/10/19 04:05:31;;;;;;;139.13;18.50;;;;;;;11.61;82.47;100801.53;5110138;28;20042;-83
2023/10/19 04:08:05;;;;;;;124.57;14.02;;;;;;;11.95;82.21;100865.16;5110781;28;20036;-82
2023/10/19 04:10:38;;;;;;;87.05;11.93;;;;;;;11.65;82.99;100816.44;5110366;28;20108;-83
2023/10/19 04:13:04;;;;;;;95.55;10.63;;;;;;;12.04;82.28;100877.00;5110419;28;20031;-83
2023/10/19 04:15:33;;;;;;;63.47;16.48;;;;;;;12.00;82.12;100872.84;5110046;28;20043;-83
2023/10/19 04:18:00;;;;;;;60.58;9.30;;;;;;;12.12;82.70;100881.75;5110882;28;20024;-82
2023/10/19 04:22:51;;;;;;;90.20;10.90;;;;;;;12.18;82.43;100881.22;5110761;27;20035;-83
2023/10/19 04:25:25;;;;;;;58.33;9.00;;;;;;;11.78;82.17;100813.63;5110784;28;20471;-82
2023/10/19 04:27:51;;;;;;;67.95;12.40;;;;;;;12.22;82.04;100877.28;5108332;28;20114;-83
2023/10/19 04:30:21;;;;;;;79.75;8.45;;;;;;;12.11;81.38;100858.47;5110285;28;20023;-82
2023/10/19 04:32:48;;;;;;;53.45;7.88;;;;;;;11.92;82.26;100843.84;5107241;28;20448;-82
2023/10/19 04:35:14;;;;;;;34.08;8.73;;;;;;;12.15;82.30;100881.47;5110717;28;20085;-84
2023/10/19 04:37:42;;;;;;;107.22;14.15;;;;;;;11.87;82.62;100834.41;5110434;28;20024;-84
2023/10/19 04:40:09;;;;;;;98.35;12.25;;;;;;;12.13;82.54;100867.28;5110908;28;20024;-85
2023/10/19 04:42:36;;;;;;;120.70;15.13;;;;;;;11.98;82.61;100829.84;5110600;28;20032;-84
2023/10/19 04:45:02;;;;;;;118.82;15.45;;;;;;;12.03;82.44;100840.25;5110665;28;20024;-88
2023/10/19 04:47:28;;;;;;;141.95;15.90;;;;;;;12.21;82.55;100867.47;5111324;28;20031;-86
2023/10/19 04:49:53;;;;;;;124.20;13.88;;;;;;;12.40;82.61;100902.72;5110813;28;20034;-87
2023/10/19 04:52:19;;;;;;;157.00;17.75;;;;;;;12.44;82.13;100896.09;5110511;28;20058;-85
2023/10/19 04:54:44;;;;;;;165.02;16.30;;;;;;;12.25;82.77;100861.72;5110389;28;20051;-84
2023/10/19 04:57:10;;;;;;;195.77;18.20;;;;;;;12.22;82.89;100853.03;5110706;28;20055;-82
2023/10/19 04:59:36;;;;;;;154.32;17.83;;;;;;;12.52;82.70;100896.28;5109426;28;20083;-82
2023/10/19 05:02:01;;;;;;;231.07;23.58;;;;;;;12.47;82.23;100879.63;5110623;28;20402;-82
2023/10/19 05:04:27;;;;;;;138.68;13.00;;;;;;;12.66;82.40;100895.94;5110749;28;20024;-81
2023/10/19 05:06:53;;;;;;;48.08;8.00;;;;;;;12.52;81.89;100864.75;5110651;28;20026;-81
2023/10/19 05:09:19;;;;;;;98.57;11.50;;;;;;;12.69;81.95;100873.25;5111075;28;20031;-80
2023/10/19 05:11:45;;;;;;;60.88;11.68;;;;;;;12.81;81.66;100886.53;5110564;28;20126;-80
2023/10/19 05:14:13;;;;;;;52.72;9.13;;;;;;;12.99;81.77;100906.53;5110468;28;20104;-81
2023/10/19 05:16:42;;;;;;;126.25;17.33;;;;;;;12.84;81.01;100870.06;5110439;28;20057;-85
2023/10/19 05:19:07;;;;;;;127.25;15.60;;;;;;;13.12;80.64;100894.72;5110717;28;20471;-83
2023/10/19 05:21:33;;;;;;;103.93;14.52;;;;;;;13.11;80.39;100893.84;5110861;28;20028;-83
2023/10/19 05:24:02;;;;;;;76.35;11.57;;;;;;;13.22;80.63;100901.00;5111105;28;20067;-83
2023/10/19 05:26:27;;;;;;;118.10;13.02;;;;;;;13.21;80.12;100893.91;5112483;28;20024;-82
2023/10/19 05:28:54;;;;;;;144.48;16.10;;;;;;;13.28;79.86;100900.44;5114720;28;20027;-83
2023/10/19 05:31:20;;;;;;;73.40;12.32;;;;;;;13.34;79.89;100889.09;5114531;28;20107;-83
2023/10/19 05:33:48;;;;;;;128.88;16.70;;;;;;;13.27;79.75;100877.97;5115006;28;20111;-84
2023/10/19 05:36:14;;;;;;;94.97;13.07;;;;;;;13.49;79.65;100909.34;5115320;28;20020;-83
2023/10/19 05:38:40;;;;;;;116.03;13.18;;;;;;;13.57;79.67;100906.84;5114694;28;20055;-82
2023/10/19 05:41:07;;;;;;;109.50;13.27;;;;;;;13.52;79.80;100898.25;5114627;28;20116;-84
2023/10/19 05:43:34;;;;;;;86.85;11.75;;;;;;;13.61;80.12;100897.44;5114588;28;20032;-82
2023/10/19 05:46:00;;;;;;;188.93;19.17;;;;;;;13.72;79.86;100894.66;5115361;28;20044;-83
2023/10/19 05:48:25;;;;;;;99.57;12.95;;;;;;;13.80;79.86;100908.31;5114608;28;20028;-82
2023/10/19 05:50:51;;;;;;;82.60;15.02;;;;;;;13.85;80.09;100906.03;5112562;28;20024;-82
2023/10/19 05:53:22;;;;;;;178.35;23.80;;;;;;;13.89;79.61;100902.06;5114465;28;20016;-82
2023/10/19 05:55:49;;;;;;;140.20;19.33;;;;;;;13.98;80.12;100895.81;5114232;28;20042;-82
2023/10/19 05:58:15;;;;;;;204.75;19.17;;;;;;;14.10;79.95;100904.66;5112087;28;20024;-80
2023/10/19 06:00:40;;;;;;;137.30;17.35;;;;;;;14.10;79.98;100894.69;5114514;27;20084;-83
2023/10/19 06:03:06;;;;;;;156.27;17.52;;;;;;;14.24;79.67;100895.28;5114782;28;20772;-84
2023/10/19 06:05:31;;;;;;;118.43;18.60;;;;;;;14.37;79.52;100893.19;5114662;28;20031;-81
2023/10/19 06:07:59;;;;;;;155.07;17.70;;;;;;;14.50;79.22;100907.28;5114298;28;20083;-82
2023/10/19 06:10:25;;;;;;;104.13;14.75;;;;;;;14.57;78.83;100897.59;5113818;28;20019;-83
2023/10/19 06:12:51;;;;;;;143.02;18.38;;;;;;;14.69;78.77;100912.69;5114658;28;20031;-84
2023/10/19 06:15:20;;;;;;;93.38;14.38;;;;;;;14.64;78.39;100877.06;5113528;28;20138;-82
2023/10/19 06:17:47;;;;;;;19.13;5.22;;;;;;;14.90;78.13;100910.66;5113865;28;20028;-83
2023/10/19 06:20:26;;;;;;;28.10;4.53;;;;;;;15.02;77.18;100909.47;5112081;28;20243;-82
2023/10/19 06:23:04;;;;;;;17.17;4.00;;;;;;;15.06;76.42;100900.06;5112599;28;20478;-84
2023/10/19 06:25:30;;;;;;;30.17;4.80;;;;;;;15.25;75.82;100908.16;5112380;28;20531;-82
2023/10/19 06:27:59;;;;;;;15.73;5.22;;;;;;;15.35;75.58;100912.69;5114003;28;20031;-82
2023/10/19 06:30:26;;;;;;;30.67;7.15;;;;;;;15.42;75.18;100897.50;5113707;28;20023;-83
2023/10/19 06:32:54;;;;;;;37.97;8.10;;;;;;;15.43;74.83;100882.97;5113453;28;20487;-82
2023/10/19 06:35:21;;;;;;;29.98;6.13;;;;;;;15.47;74.52;100865.41;5113070;28;20428;-82
2023/10/19 06:37:47;;;;;;;21.23;4.75;;;;;;;15.86;73.60;100904.03;5112210;28;20042;-82
2023/10/19 06:40:17;;;;;;;111.40;12.25;;;;;;;15.93;73.10;100899.72;5113201;28;20028;-83
2023/10/19 06:42:45;;;;;;;18.95;5.13;;;;;;;16.01;72.79;100900.66;5113089;28;20027;-82
2023/10/19 06:45:13;;;;;;;56.72;6.82;;;;;;;16.15;71.97;100908.25;5112876;28;20073;-83
2023/10/19 06:47:46;;;;;;;35.25;7.03;;;;;;;16.20;71.45;100911.38;5113262;28;20046;-83
2023/10/19 06:50:15;;;;;;;54.95;6.70;;;;;;;16.15;71.14;100885.69;5113178;28;20502;-82
2023/10/19 06:52:42;;;;;;;38.13;7.03;;;;;;;16.40;71.33;100901.19;5113238;28;20100;-83
2023/10/19 06:55:22;;;;;;;29.67;6.32;;;;;;;16.49;70.98;100905.69;5112870;28;20024;-83
2023/10/19 06:57:50;;;;;;;25.95;7.10;;;;;;;16.58;70.86;100895.78;5112694;28;20054;-82
2023/10/19 07:00:22;;;;;;;43.28;8.20;;;;;;;16.60;70.86;100910.09;5112204;28;20081;-83
2023/10/19 07:02:51;;;;;;;48.42;7.45;;;;;;;16.70;70.53;100902.69;5112406;28;20665;-83
2023/10/19 07:05:18;;;;;;;28.35;7.63;;;;;;;16.66;70.57;100887.72;5111873;28;20106;-83
2023/10/19 07:07:45;;;;;;;35.20;6.47;;;;;;;16.80;70.60;100906.16;5112244;28;20027;-82
2023/10/19 07:10:12;;;;;;;43.67;7.93;;;;;;;16.76;70.65;100893.91;5111987;28;20032;-83
2023/10/19 07:12:39;;;;;;;61.22;9.82;;;;;;;16.79;70.33;100889.00;5111889;28;20101;-81
2023/10/19 07:15:13;;;;;;;37.97;7.35;;;;;;;16.88;70.34;100906.22;5111620;28;20048;-83
2023/10/19 07:17:40;;;;;;;16.45;5.35;;;;;;;16.92;70.13;100893.16;5111585;28;20089;-84
2023/10/19 07:20:07;;;;;;;29.55;6.53;;;;;;;16.84;70.32;100889.41;5111630;28;20038;-82
2023/10/19 07:22:33;;;;;;;21.38;7.07;;;;;;;16.95;70.19;100891.00;5111165;28;20088;-83
2023/10/19 07:24:59;;;;;;;58.15;28.08;;;;;;;16.96;69.77;100872.81;5111410;28;20471;-81
2023/10/19 07:27:28;;;;;;;33.10;11.30;;;;;;;17.01;69.22;100876.75;5111328;28;20035;-82
2023/10/19 07:29:53;;;;;;;14.27;6.68;;;;;;;17.15;69.02;100884.34;5111045;28;20534;-82
2023/10/19 07:32:19;;;;;;;21.88;5.68;;;;;;;17.12;68.66;100862.94;5111193;28;20023;-82
2023/10/19 07:34:44;;;;;;;17.63;4.40;;;;;;;17.18;68.25;100867.72;5111560;28;20499;-82
2023/10/19 07:37:15;;;;;;;15.70;4.00;;;;;;;17.26;68.12;100875.91;5112099;28;20031;-83
2023/10/19 07:39:45;;;;;;;25.27;5.38;;;;;;;17.32;67.61;100880.69;5112001;28;20027;-82
2023/10/19 07:42:11;;;;;;;16.23;4.40;;;;;;;17.25;68.09;100871.47;5111191;28;20028;-83
2023/10/19 07:44:37;;;;;;;12.32;3.88;;;;;;;17.34;68.37;100873.22;5111327;28;20275;-82
2023/10/19 07:47:02;;;;;;;10.35;4.28;;;;;;;17.21;68.13;100848.38;5111763;28;20579;-83
2023/10/19 07:49:29;;;;;;;11.57;3.90;;;;;;;17.25;68.41;100871.47;5110861;28;20052;-83
2023/10/19 07:51:55;;;;;;;34.38;5.22;;;;;;;17.27;68.98;100855.88;5111336;27;20098;-83
2023/10/19 07:54:20;;;;;;;10.05;3.70;;;;;;;17.27;68.94;100847.72;5111294;28;20173;-83
2023/10/19 07:56:46;;;;;;;19.83;6.63;;;;;;;17.39;68.92;100868.16;5110742;28;20754;-83
2023/10/19 07:59:12;;;;;;;18.90;5.57;;;;;;;17.17;68.96;100811.63;5111160;28;20040;-82
2023/10/19 08:01:39;;;;;;;23.60;5.53;;;;;;;17.46;69.11;100832.16;5110846;28;20075;-83
2023/10/19 08:04:05;;;;;;;39.53;5.65;;;;;;;17.58;68.22;100863.50;5111313;28;20538;-83
2023/10/19 08:06:31;;;;;;;21.35;4.43;;;;;;;17.63;68.50;100866.59;5109648;28;20027;-82
2023/10/19 08:08:57;;;;;;;47.67;6.43;;;;;;;17.58;68.95;100842.63;5110890;28;20046;-82
2023/10/19 08:11:23;;;;;;;21.65;4.05;;;;;;;17.73;69.01;100856.44;5110739;28;20028;-82
2023/10/19 08:13:49;;;;;;;22.88;6.18;;;;;;;17.73;69.20;100851.84;5110901;28;20438;-83
2023/10/19 08:16:16;;;;;;;25.85;5.00;;;;;;;17.52;69.66;100820.63;5111297;28;20042;-82
2023/10/19 08:18:43;;;;;;;16.13;4.22;;;;;;;17.69;70.00;100817.81;5110641;27;20086;-82
2023/10/19 08:21:09;;;;;;;19.65;4.25;;;;;;;17.93;69.31;100842.34;5111470;28;20055;-82
2023/10/19 08:23:34;;;;;;;28.23;4.38;;;;;;;18.06;68.98;100841.00;5110885;28;20023;-83
2023/10/19 08:26:00;;;;;;;14.32;3.85;;;;;;;18.24;67.81;100839.00;5110926;28;20027;-83
2023/10/19 08:28:25;;;;;;;10.05;2.92;;;;;;;18.31;66.96;100843.63;5110640;28;20521;-82
2023/10/19 08:30:57;;;;;;;24.75;2.90;;;;;;;18.38;66.21;100838.31;5110956;28;20024;-83
2023/10/19 08:33:27;;;;;;;8.43;2.83;;;;;;;18.44;64.26;100835.75;5110571;28;20039;-83
2023/10/19 08:35:56;;;;;;;10.68;2.42;;;;;;;18.44;65.01;100838.47;5110361;28;20088;-84
2023/10/19 08:38:25;;;;;;;19.42;2.92;;;;;;;18.56;65.53;100843.66;5108477;28;20038;-83
2023/10/19 08:40:51;;;;;;;11.80;3.20;;;;;;;18.67;65.35;100852.31;5110005;28;20104;-82
2023/10/19 08:43:21;;;;;;;12.18;2.35;;;;;;;18.50;64.73;100836.97;5109778;28;20032;-83
2023/10/19 08:45:46;;;;;;;17.80;3.08;;;;;;;18.60;65.68;100832.22;5109995;28;20072;-83
2023/10/19 08:48:13;;;;;;;21.02;3.50;;;;;;;18.65;65.71;100821.66;5110119;28;20031;-82
2023/10/19 08:50:39;;;;;;;17.10;2.58;;;;;;;18.63;65.62;100841.91;5110533;28;20031;-82
2023/10/19 08:53:08;;;;;;;15.52;2.88;;;;;;;18.72;65.86;100849.06;5110733;28;20034;-83
2023/10/19 08:55:34;;;;;;;22.08;2.95;;;;;;;18.73;66.66;100845.31;5110860;28;20027;-82
2023/10/19 08:58:00;;;;;;;12.02;2.80;;;;;;;18.60;67.86;100831.34;5111186;28;20031;-83
2023/10/19 09:00:26;;;;;;;13.00;2.58;;;;;;;18.55;67.20;100820.13;5110079;28;20023;-82
2023/10/19 09:02:53;;;;;;;7.82;3.00;;;;;;;18.80;66.55;100840.88;5114383;28;20084;-85
2023/10/19 09:05:22;;;;;;;30.08;5.43;;;;;;;18.84;66.69;100825.88;5114214;28;20119;-84
2023/10/19 09:07:55;;;;;;;24.92;3.22;;;;;;;18.76;67.07;100813.13;5114155;28;20054;-84
2023/10/19 09:10:31;;;;;;;8.57;2.60;;;;;;;18.79;68.28;100825.56;5114205;28;20471;-83
2023/10/19 09:13:01;;;;;;;15.40;2.78;;;;;;;18.79;68.05;100817.38;5113862;28;20122;-82
2023/10/19 09:15:30;;;;;;;23.48;3.88;;;;;;;18.90;66.77;100828.75;5113642;27;20558;-83
2023/10/19 09:17:55;;;;;;;11.40;3.05;;;;;;;18.86;67.02;100807.50;5114033;28;20039;-82
2023/10/19 09:20:27;;;;;;;43.03;5.38;;;;;;;19.03;67.11;100820.03;5114224;28;20084;-83
2023/10/19 09:22:54;;;;;;;11.80;2.95;;;;;;;19.02;66.92;100804.69;5095507;28;20043;-82
2023/10/19 09:25:20;;;;;;;18.85;4.70;;;;;;;19.21;67.15;100817.94;5113926;28;20024;-82
2023/10/19 09:27:46;;;;;;;15.77;3.08;;;;;;;19.38;67.46;100803.22;5113458;28;20036;-82
2023/10/19 09:30:18;;;;;;;9.48;3.20;;;;;;;19.35;66.94;100798.13;5113637;28;20444;-83
2023/10/19 09:32:47;;;;;;;12.15;3.95;;;;;;;19.42;67.03;100779.19;5113819;28;20027;-84
2023/10/19 09:35:15;;;;;;;21.52;2.97;;;;;;;19.39;67.35;100783.13;5113828;27;20499;-83
2023/10/19 09:37:42;;;;;;;12.10;4.13;;;;;;;19.37;68.35;100787.88;5113257;28;20056;-83
2023/10/19 09:40:12;;;;;;;22.77;3.80;;;;;;;19.55;67.53;100793.09;5113935;28;20026;-82
2023/10/19 09:42:46;;;;;;;9.25;2.75;;;;;;;19.46;66.71;100754.09;5113224;28;20020;-83
2023/10/19 09:45:12;;;;;;;15.18;3.13;;;;;;;19.57;65.68;100790.22;5113433;28;20471;-83
2023/10/19 09:47:41;;;;;;;31.00;4.03;;;;;;;19.46;66.04;100762.28;5113291;28;20035;-83
2023/10/19 09:50:07;;;;;;;20.23;3.42;;;;;;;19.39;66.98;100791.31;5113776;28;20027;-83
2023/10/19 09:52:38;;;;;;;14.30;3.08;;;;;;;19.47;65.56;100785.81;5113246;28;20027;-82
2023/10/19 09:55:23;;;;;;;9.77;3.10;;;;;;;19.32;65.39;100754.84;5113629;28;20020;-83
2023/10/19 09:57:53;;;;;;;7.13;2.30;;;;;;;19.42;64.46;100766.41;5112982;28;20028;-83
2023/10/19 10:00:25;;;;;;;6.03;2.85;;;;;;;19.36;63.99;100761.63;5113070;28;20056;-82
2023/10/19 10:02:51;;;;;;;13.40;2.97;;;;;;;19.39;63.17;100761.28;5112942;28;20483;-83
2023/10/19 10:05:35;;;;;;;30.65;3.85;;;;;;;19.41;62.90;100769.31;5112919;28;20030;-83
2023/10/19 10:08:18;;;;;;;9.25;3.00;;;;;;;19.45;62.65;100765.19;5112946;28;20709;-82
2023/10/19 10:10:46;;;;;;;6.60;2.70;;;;;;;19.41;62.74;100729.25;5113412;28;20498;-83
2023/10/19 10:13:24;;;;;;;9.07;2.78;;;;;;;19.61;62.69;100736.97;5112711;28;20063;-83
2023/10/19 10:15:53;;;;;;;9.07;2.72;;;;;;;19.46;62.06;100702.28;5111700;28;20466;-84
2023/10/19 10:18:18;;;;;;;14.90;3.63;;;;;;;19.75;62.35;100734.31;5112709;28;20104;-81
2023/10/19 10:20:44;;;;;;;13.00;3.05;;;;;;;19.82;61.74;100723.50;5113561;28;20522;-82
2023/10/19 10:23:32;;;;;;;9.63;2.67;;;;;;;19.53;62.20;100686.91;5113085;28;20102;-83
2023/10/19 10:25:58;;;;;;;11.15;2.78;;;;;;;19.64;61.10;100695.66;5112576;28;20479;-83
2023/10/19 10:28:24;;;;;;;12.35;2.38;;;;;;;19.67;60.55;100711.69;5113081;28;20035;-83
2023/10/19 10:31:18;;;;;;;15.85;3.20;;;;;;;19.72;60.85;100707.41;5112785;28;20031;-83
2023/10/19 10:33:57;;;;;;;6.68;2.42;;;;;;;19.84;59.94;100700.47;5112656;28;20016;-82
2023/10/19 10:36:22;;;;;;;18.88;2.80;;;;;;;19.69;60.11;100669.56;5112699;28;20020;-83
2023/10/19 10:38:50;;;;;;;6.25;2.45;;;;;;;19.76;60.02;100677.84;5112387;27;20020;-83
2023/10/19 10:41:28;;;;;;;8.73;3.35;;;;;;;19.77;60.03;100677.66;5112115;27;20110;-82
2023/10/19 10:43:56;;;;;;;14.45;4.45;;;;;;;19.85;59.69;100679.47;5112195;28;20035;-82
2023/10/19 10:46:27;;;;;;;16.77;3.83;;;;;;;19.85;59.09;100684.91;5112200;28;20031;-82
2023/10/19 10:48:53;;;;;;;8.52;2.92;;;;;;;19.74;57.20;100674.44;5112310;28;20057;-82
2023/10/19 10:51:31;;;;;;;11.00;2.80;;;;;;;19.71;57.88;100648.38;5110525;28;20027;-82
2023/10/19 10:53:58;;;;;;;11.40;2.75;;;;;;;19.65;57.49;100640.06;5112263;28;20102;-82
2023/10/19 10:56:24;;;;;;;13.30;2.60;;;;;;;19.80;58.16;100662.81;5111780;27;20364;-82
2023/10/19 10:58:50;;;;;;;11.98;3.47;;;;;;;19.71;59.87;100640.19;5112293;28;20513;-82
2023/10/19 11:01:27;;;;;;;18.25;2.85;;;;;;;19.98;59.84;100657.84;5111849;28;20122;-82
2023/10/19 11:04:16;;;;;;;16.98;3.30;;;;;;;20.06;58.69;100655.91;5111822;28;20105;-82
2023/10/19 11:06:49;;;;;;;11.63;2.72;;;;;;;19.96;57.31;100627.19;5111614;28;20032;-82
2023/10/19 11:09:18;;;;;;;12.50;2.65;;;;;;;20.07;56.16;100654.88;5111578;28;20024;-82
2023/10/19 11:11:45;;;;;;;12.70;3.20;;;;;;;20.06;53.93;100653.16;5111711;27;20024;-83
2023/10/19 11:14:11;;;;;;;20.15;3.10;;;;;;;20.12;54.71;100653.47;5111583;28;20513;-83
2023/10/19 11:16:38;;;;;;;16.83;2.67;;;;;;;20.13;54.48;100634.16;5108929;28;20036;-83
2023/10/19 11:19:04;;;;;;;16.60;3.38;;;;;;;20.25;54.25;100649.06;5112094;28;20122;-82
2023/10/19 11:21:30;;;;;;;12.60;2.55;;;;;;;20.25;55.97;100651.78;5111381;28;20024;-82
2023/10/19 11:23:56;;;;;;;12.50;2.92;;;;;;;20.24;55.03;100636.44;5111238;28;20087;-82
2023/10/19 11:26:26;;;;;;;9.38;2.40;;;;;;;20.33;55.28;100634.50;5111789;28;20016;-81
2023/10/19 11:29:09;;;;;;;11.00;2.55;;;;;;;20.40;54.61;100636.28;5111633;28;20027;-82
2023/10/19 11:31:39;;;;;;;17.40;3.42;;;;;;;20.48;56.09;100649.88;5111622;28;20023;-84
2023/10/19 11:34:05;;;;;;;12.63;2.70;;;;;;;20.46;55.71;100632.78;5108961;28;20036;-83
2023/10/19 11:36:31;;;;;;;8.20;3.42;;;;;;;20.29;54.35;100612.19;5111428;28;20012;-81
2023/10/19 11:38:57;;;;;;;34.13;3.08;;;;;;;20.27;53.66;100619.72;5111499;28;20437;-83
2023/10/19 11:41:23;;;;;;;18.67;3.65;;;;;;;20.43;53.02;100624.97;5111165;28;20076;-82